createdAt,value
2019-05-20T00:02:27.508Z,21.00
2019-05-20T00:04:54.668Z,21.00
2019-05-20T00:07:25.109Z,21.00
2019-05-20T00:09:55.632Z,21.00
2019-05-20T00:12:26.068Z,20.90
2019-05-20T00:14:56.532Z,21.00
2019-05-20T00:17:27.040Z,21.00
2019-05-20T00:19:57.426Z,20.90
2019-05-20T00:22:27.893Z,20.90
2019-05-20T00:24:58.293Z,20.90
2019-05-20T00:27:28.824Z,20.90
2019-05-20T00:29:59.234Z,21.00
2019-05-20T00:32:40.589Z,20.90
2019-05-20T00:35:01.702Z,20.90
2019-05-20T00:37:32.150Z,20.90
2019-05-20T00:40:02.647Z,20.90
2019-05-20T00:42:34.156Z,20.90
2019-05-20T00:45:04.684Z,20.90
2019-05-20T00:47:46.645Z,20.90
2019-05-20T00:50:16.974Z,20.90
2019-05-20T00:52:47.406Z,20.90
2019-05-20T00:55:25.175Z,20.90
2019-05-20T00:57:55.563Z,20.90
2019-05-20T01:00:25.951Z,20.90
2019-05-20T01:02:57.422Z,20.90
2019-05-20T01:05:29.070Z,20.90
2019-05-20T01:07:59.439Z,20.90
2019-05-20T01:10:29.921Z,20.90
2019-05-20T01:13:00.392Z,20.90
2019-05-20T01:15:30.874Z,20.90
2019-05-20T01:18:01.346Z,20.90
2019-05-20T01:20:31.784Z,20.90
2019-05-20T01:23:02.236Z,20.90
2019-05-20T01:25:32.680Z,20.90
2019-05-20T01:28:02.960Z,20.90
2019-05-20T01:30:33.440Z,20.90
2019-05-20T01:33:13.457Z,20.90
2019-05-20T01:35:35.959Z,20.90
2019-05-20T01:38:06.355Z,20.90
2019-05-20T01:40:36.682Z,20.90
2019-05-20T01:43:08.317Z,20.90
2019-05-20T01:45:38.713Z,20.90
2019-05-20T01:48:19.224Z,20.90
2019-05-20T01:50:49.665Z,20.90
2019-05-20T01:53:20.063Z,20.90
2019-05-20T01:55:50.427Z,20.80
2019-05-20T01:58:20.822Z,20.80
2019-05-20T02:00:51.264Z,20.90
2019-05-20T02:03:30.910Z,20.80
2019-05-20T02:05:53.741Z,20.80
2019-05-20T02:08:24.090Z,20.80
2019-05-20T02:10:56.475Z,20.80
2019-05-20T02:13:28.416Z,20.90
2019-05-20T02:16:05.478Z,20.90
2019-05-20T02:18:35.851Z,20.80
2019-05-20T02:21:06.273Z,20.80
2019-05-20T02:23:36.706Z,20.80
2019-05-20T02:26:07.132Z,20.80
2019-05-20T02:28:37.470Z,20.80
2019-05-20T02:31:07.950Z,20.80
2019-05-20T02:33:50.811Z,20.80
2019-05-20T02:36:10.370Z,20.80
2019-05-20T02:38:40.742Z,20.80
2019-05-20T02:41:11.121Z,20.80
2019-05-20T02:43:41.671Z,20.90
2019-05-20T02:46:12.012Z,20.80
2019-05-20T02:48:42.426Z,20.80
2019-05-20T02:51:12.797Z,20.80
2019-05-20T02:53:43.188Z,20.80
2019-05-20T02:56:14.671Z,20.80
2019-05-20T02:58:45.073Z,20.80
2019-05-20T03:01:15.491Z,20.80
2019-05-20T03:03:45.930Z,20.80
2019-05-20T03:06:16.324Z,20.80
2019-05-20T03:08:46.758Z,20.80
2019-05-20T03:11:17.096Z,20.80
2019-05-20T03:13:47.497Z,20.80
2019-05-20T03:16:37.006Z,20.80
2019-05-20T03:19:07.443Z,20.80
2019-05-20T03:21:37.765Z,20.80
2019-05-20T03:24:08.196Z,20.80
2019-05-20T03:26:38.637Z,20.80
2019-05-20T03:29:09.050Z,20.80
2019-05-20T03:31:39.465Z,20.80
2019-05-20T03:34:09.976Z,20.80
2019-05-20T03:36:52.608Z,20.80
2019-05-20T03:39:23.105Z,20.80
2019-05-20T03:41:53.550Z,20.80
2019-05-20T03:44:23.911Z,20.80
2019-05-20T03:46:54.325Z,20.80
2019-05-20T03:49:24.684Z,20.80
2019-05-20T03:51:55.039Z,20.80
2019-05-20T03:54:25.557Z,20.80
2019-05-20T03:56:55.818Z,20.80
2019-05-20T03:59:26.297Z,20.80
2019-05-20T04:01:56.662Z,20.80
2019-05-20T04:04:26.999Z,20.80
2019-05-20T04:06:57.440Z,20.80
2019-05-20T04:09:27.816Z,20.80
2019-05-20T04:11:58.273Z,20.80
2019-05-20T04:14:28.716Z,20.90
2019-05-20T04:16:59.112Z,20.90
2019-05-20T04:19:48.535Z,20.80
2019-05-20T04:22:18.958Z,20.90
2019-05-20T04:24:49.257Z,20.90
2019-05-20T04:27:19.689Z,20.90
2019-05-20T04:29:50.075Z,20.90
2019-05-20T04:32:20.466Z,20.90
2019-05-20T04:34:50.990Z,20.90
2019-05-20T04:37:21.348Z,20.90
2019-05-20T04:39:51.820Z,20.90
2019-05-20T04:42:34.062Z,20.90
2019-05-20T04:45:04.437Z,21.00
2019-05-20T04:47:34.754Z,21.00
2019-05-20T04:50:05.241Z,21.00
2019-05-20T04:52:35.702Z,21.00
2019-05-20T04:55:06.159Z,21.10
2019-05-20T04:57:36.652Z,21.10
2019-05-20T05:00:07.835Z,21.10
2019-05-20T05:02:38.205Z,21.10
2019-05-20T05:05:08.520Z,21.10
2019-05-20T05:07:38.845Z,21.20
2019-05-20T05:10:09.225Z,21.20
2019-05-20T05:12:39.701Z,21.20
2019-05-20T05:15:09.981Z,21.20
2019-05-20T05:17:41.303Z,21.20
2019-05-20T05:20:18.478Z,21.20
2019-05-20T05:22:48.096Z,21.30
2019-05-20T05:25:18.454Z,21.30
2019-05-20T05:27:48.891Z,21.30
2019-05-20T05:30:19.349Z,21.30
2019-05-20T05:32:49.880Z,21.40
2019-05-20T05:35:20.259Z,21.40
2019-05-20T05:37:50.777Z,21.40
2019-05-20T05:40:24.520Z,21.40
2019-05-20T05:42:57.875Z,21.50
2019-05-20T05:45:32.089Z,21.50
2019-05-20T05:48:02.543Z,21.50
2019-05-20T05:50:32.929Z,21.50
2019-05-20T05:53:03.454Z,21.50
2019-05-20T05:55:33.862Z,21.60
2019-05-20T05:58:08.195Z,21.60
2019-05-20T06:00:36.530Z,21.60
2019-05-20T06:03:07.185Z,21.70
2019-05-20T06:05:37.558Z,21.60
2019-05-20T06:08:07.934Z,21.70
2019-05-20T06:10:38.338Z,21.70
2019-05-20T06:13:18.955Z,21.80
2019-05-20T06:15:54.505Z,21.80
2019-05-20T06:18:25.222Z,21.80
2019-05-20T06:20:56.539Z,21.90
2019-05-20T06:23:27.125Z,21.90
2019-05-20T06:29:12.957Z,22.00
2019-05-20T06:31:50.363Z,22.00
2019-05-20T06:36:50.332Z,22.10
2019-05-20T06:39:30.311Z,22.20
2019-05-20T06:42:02.830Z,22.20
2019-05-20T06:44:52.142Z,22.30
2019-05-20T06:47:18.390Z,22.40
2019-05-20T06:49:52.372Z,22.40
2019-05-20T06:52:35.379Z,22.40
2019-05-20T06:54:55.206Z,22.50
2019-05-20T06:57:31.090Z,22.50
2019-05-20T07:00:01.770Z,22.60
2019-05-20T07:02:34.032Z,22.70
2019-05-20T07:05:05.087Z,22.70
2019-05-20T07:07:37.335Z,22.80
2019-05-20T07:10:20.047Z,22.90
2019-05-20T07:12:53.691Z,22.90
2019-05-20T07:15:38.351Z,22.90
2019-05-20T07:18:12.962Z,23.00
2019-05-20T07:20:58.085Z,23.00
2019-05-20T07:23:32.018Z,23.10
2019-05-20T07:26:08.947Z,23.20
2019-05-20T07:28:39.674Z,23.20
2019-05-20T07:31:18.261Z,23.20
2019-05-20T07:34:00.596Z,23.20
2019-05-20T07:36:33.134Z,23.30
2019-05-20T07:39:05.739Z,23.30
2019-05-20T07:41:36.583Z,23.40
2019-05-20T07:44:07.553Z,23.40
2019-05-20T07:46:47.828Z,23.40
2019-05-20T07:49:18.800Z,23.40
2019-05-20T07:51:51.620Z,23.50
2019-05-20T07:54:26.060Z,23.50
2019-05-20T07:57:56.941Z,23.50
2019-05-20T08:00:27.738Z,23.60
2019-05-20T08:02:58.574Z,23.60
2019-05-20T08:05:29.735Z,23.60
2019-05-20T08:08:00.809Z,23.70
2019-05-20T08:10:35.581Z,23.70
2019-05-20T08:13:08.006Z,23.80
2019-05-20T08:15:38.582Z,23.80
2019-05-20T08:18:09.711Z,23.80
2019-05-20T08:20:40.441Z,23.90
2019-05-20T08:24:06.440Z,23.90
2019-05-20T08:26:37.234Z,24.00
2019-05-20T08:29:15.694Z,24.00
2019-05-20T08:31:46.306Z,24.00
2019-05-20T08:34:17.703Z,24.00
2019-05-20T08:36:49.459Z,24.10
2019-05-20T08:39:23.679Z,24.10
2019-05-20T08:41:55.432Z,24.10
2019-05-20T08:44:27.578Z,24.20
2019-05-20T08:46:58.309Z,24.20
2019-05-20T08:49:28.781Z,24.20
2019-05-20T08:51:59.396Z,24.30
2019-05-20T08:54:40.417Z,24.30
2019-05-20T08:57:11.663Z,24.30
2019-05-20T08:59:42.245Z,24.30
2019-05-20T09:02:12.740Z,24.30
2019-05-20T09:04:43.458Z,24.40
2019-05-20T09:07:20.255Z,24.40
2019-05-20T09:09:52.934Z,24.40
2019-05-20T09:12:23.696Z,24.40
2019-05-20T09:16:03.388Z,24.50
2019-05-20T09:18:36.034Z,24.40
2019-05-20T09:21:10.115Z,24.40
2019-05-20T09:23:41.438Z,24.50
2019-05-20T09:26:12.337Z,24.50
2019-05-20T09:28:44.304Z,24.50
2019-05-20T09:31:22.390Z,24.60
2019-05-20T09:33:54.107Z,24.60
2019-05-20T09:36:26.060Z,24.60
2019-05-20T09:38:57.243Z,24.60
2019-05-20T09:41:37.666Z,24.60
2019-05-20T09:44:08.128Z,24.70
2019-05-20T09:46:41.019Z,24.70
2019-05-20T09:49:14.949Z,24.70
2019-05-20T09:51:45.480Z,24.70
2019-05-20T09:54:16.112Z,24.80
2019-05-20T09:56:48.795Z,24.80
2019-05-20T09:59:19.040Z,24.80
2019-05-20T10:01:51.365Z,24.80
2019-05-20T10:04:37.936Z,24.90
2019-05-20T10:07:17.844Z,24.90
2019-05-20T10:09:48.623Z,24.90
2019-05-20T10:12:19.967Z,25.00
2019-05-20T10:14:54.298Z,24.90
2019-05-20T10:17:24.683Z,25.00
2019-05-20T10:19:55.454Z,25.00
2019-05-20T10:22:26.773Z,25.00
2019-05-20T10:25:01.165Z,25.00
2019-05-20T10:27:36.815Z,25.10
2019-05-20T10:30:07.551Z,25.00
2019-05-20T10:32:39.391Z,25.10
2019-05-20T10:35:09.907Z,25.10
2019-05-20T10:37:45.422Z,25.10
2019-05-20T10:40:25.087Z,25.20
2019-05-20T10:43:02.228Z,25.20
2019-05-20T10:45:37.157Z,25.20
2019-05-20T10:48:10.688Z,25.20
2019-05-20T10:50:42.850Z,25.20
2019-05-20T10:53:14.377Z,25.20
2019-05-20T10:55:45.945Z,25.30
2019-05-20T10:58:20.744Z,25.30
2019-05-20T11:01:02.618Z,25.30
2019-05-20T11:03:23.873Z,25.30
2019-05-20T11:05:54.623Z,25.30
2019-05-20T11:08:25.283Z,25.30
2019-05-20T11:10:55.590Z,25.30
2019-05-20T11:13:26.299Z,25.30
2019-05-20T11:15:58.594Z,25.20
2019-05-20T11:18:43.336Z,25.20
2019-05-20T11:21:14.481Z,25.20
2019-05-20T11:23:46.717Z,25.20
2019-05-20T11:26:18.952Z,25.20
2019-05-20T11:29:15.755Z,25.20
2019-05-20T11:32:07.019Z,25.20
2019-05-20T11:34:42.314Z,25.20
2019-05-20T11:37:13.870Z,25.20
2019-05-20T11:39:46.064Z,25.10
2019-05-20T11:42:16.943Z,25.10
2019-05-20T11:47:32.080Z,25.10
2019-05-20T11:50:03.244Z,25.10
2019-05-20T11:52:33.907Z,25.00
2019-05-20T11:55:04.754Z,25.00
2019-05-20T11:57:49.638Z,25.00
2019-05-20T12:00:23.648Z,25.00
2019-05-20T12:02:56.432Z,25.00
2019-05-20T12:05:28.999Z,25.00
2019-05-20T12:07:59.567Z,25.00
2019-05-20T12:10:41.016Z,25.00
2019-05-20T12:13:11.684Z,25.00
2019-05-20T12:15:42.295Z,25.00
2019-05-20T12:18:14.180Z,25.00
2019-05-20T12:20:44.963Z,25.10
2019-05-20T12:23:18.489Z,25.00
2019-05-20T12:25:53.620Z,25.10
2019-05-20T12:28:26.831Z,25.00
2019-05-20T12:31:48.082Z,25.10
2019-05-20T12:34:02.715Z,25.10
2019-05-20T12:36:51.293Z,25.10
2019-05-20T12:39:23.904Z,25.10
2019-05-20T12:42:02.989Z,25.10
2019-05-20T12:46:42.256Z,25.10
2019-05-20T12:49:12.951Z,25.20
2019-05-20T12:51:45.742Z,25.20
